Time;durP1;ratioP1;P1;durP2;ratioP2;P2;SDS_P1;SDS_P2;PMS_P1;PMS_P2;Temp;Humidity;BMP_temperature;BMP_pressure;BME280_temperature;BME280_humidity;BME280_pressure;Samples;Min_cycle;Max_cycle;Signal;HPM_P1;HPM_P2
2024/03/29 00:01:28;;;;;;;;;;;;;;;;;;5020753;28;4510;-63
2024/03/29 00:03:53;;;;;;;;;;;;;;;;;;5024496;28;5062;-63
2024/03/29 00:06:19;;;;;;;;;;;;;;;;;;5029738;28;4493;-63
2024/03/29 00:08:44;;;;;;;;;;;;;;;;;;5027853;28;5172;-63
2024/03/29 00:11:09;;;;;;;;;;;;;;;;;;5031318;28;1063;-63
2024/03/29 00:13:35;;;;;;;;;;;;;;;;;;5020639;28;5117;-63
2024/03/29 00:16:00;;;;;;;;;;;;;;;;;;5028881;28;5256;-63
2024/03/29 00:18:25;;;;;;;;;;;;;;;;;;5024096;28;5114;-63
2024/03/29 00:20:51;;;;;;;;;;;;;;;;;;5029546;28;4638;-63
2024/03/29 00:23:17;;;;;;;;;;;;;;;;;;5023753;28;3673;-63
2024/03/29 00:25:42;;;;;;;;;;;;;;;;;;5021609;28;5144;-63
2024/03/29 00:28:07;;;;;;;;;;;;;;;;;;5029547;28;4634;-63
2024/03/29 00:30:33;;;;;;;;;;;;;;;;;;5016582;28;5079;-63
2024/03/29 00:32:58;;;;;;;;;;;;;;;;;;5019209;28;5001;-63
2024/03/29 00:35:23;;;;;;;;;;;;;;;;;;5023804;28;3366;-63
2024/03/29 00:37:49;;;;;;;;;;;;;;;;;;5021619;28;4734;-63
2024/03/29 00:40:15;;;;;;;;;;;;;;;;;;5020402;28;5133;-63
2024/03/29 00:42:40;;;;;;;;;;;;;;;;;;5022387;28;5075;-62
2024/03/29 00:45:06;;;;;;;;;;;;;;;;;;5021167;28;5429;-63
2024/03/29 00:47:31;;;;;;;;;;;;;;;;;;5024010;28;3518;-62
2024/03/29 00:49:56;;;;;;;;;;;;;;;;;;5017754;28;5001;-63
2024/03/29 00:52:22;;;;;;;;;;;;;;;;;;5024055;28;4621;-62
2024/03/29 00:54:47;;;;;;;;;;;;;;;;;;5019043;28;5324;-63
2024/03/29 00:57:14;;;;;;;;;;;;;;;;;;5020005;28;4532;-63
2024/03/29 00:59:39;;;;;;;;;;;;;;;;;;5024134;28;4589;-64
2024/03/29 01:02:05;;;;;;;;;;;;;;;;;;5029644;28;3427;-64
2024/03/29 01:04:30;;;;;;;;;;;;;;;;;;5022457;28;5088;-63
2024/03/29 01:06:56;;;;;;;;;;;;;;;;;;5029355;28;4565;-63
2024/03/29 01:09:21;;;;;;;;;;;;;;;;;;5026573;28;4524;-63
2024/03/29 01:11:46;;;;;;;;;;;;;;;;;;5025683;28;4747;-63
2024/03/29 01:14:12;;;;;;;;;;;;;;;;;;5029941;28;1210;-63
2024/03/29 01:16:37;;;;;;;;;;;;;;;;;;5017057;28;5001;-64
2024/03/29 01:19:04;;;;;;;;;;;;;;;;;;5024612;28;4968;-63
2024/03/29 01:21:30;;;;;;;;;;;;;;;;;;5021364;28;4526;-63
2024/03/29 01:23:55;;;;;;;;;;;;;;;;;;5028017;28;4497;-63
2024/03/29 01:26:21;;;;;;;;;;;;;;;;;;5018825;28;3328;-63
2024/03/29 01:28:46;;;;;;;;;;;;;;;;;;5026503;28;4684;-63
2024/03/29 01:31:12;;;;;;;;;;;;;;;;;;5024505;28;5050;-62
2024/03/29 01:33:37;;;;;;;;;;;;;;;;;;5023452;28;4642;-62
2024/03/29 01:36:06;;;;;;;;;;;;;;;;;;5021711;28;4726;-62
2024/03/29 01:38:32;;;;;;;;;;;;;;;;;;5018576;28;2233;-62
2024/03/29 01:40:57;;;;;;;;;;;;;;;;;;5020021;28;4448;-64
2024/03/29 01:43:22;;;;;;;;;;;;;;;;;;5027116;28;5249;-63
2024/03/29 01:45:48;;;;;;;;;;;;;;;;;;5024526;28;4688;-62
2024/03/29 01:48:14;;;;;;;;;;;;;;;;;;5016685;28;5188;-63
2024/03/29 01:50:39;;;;;;;;;;;;;;;;;;5024258;28;5188;-63
2024/03/29 01:53:05;;;;;;;;;;;;;;;;;;5027283;28;3338;-62
2024/03/29 01:55:30;;;;;;;;;;;;;;;;;;5018672;28;4557;-62
2024/03/29 01:57:56;;;;;;;;;;;;;;;;;;5034096;28;4471;-63
2024/03/29 02:00:21;;;;;;;;;;;;;;;;;;5020529;28;5213;-62
2024/03/29 02:02:47;;;;;;;;;;;;;;;;;;5023718;28;4659;-62
2024/03/29 02:05:12;;;;;;;;;;;;;;;;;;5023996;28;3348;-63
2024/03/29 02:07:38;;;;;;;;;;;;;;;;;;5014322;28;4720;-63
2024/03/29 02:10:04;;;;;;;;;;;;;;;;;;5026675;28;4730;-63
2024/03/29 02:12:30;;;;;;;;;;;;;;;;;;5039902;28;4759;-62
2024/03/29 02:14:55;;;;;;;;;;;;;;;;;;5016709;28;5207;-63
2024/03/29 02:17:21;;;;;;;;;;;;;;;;;;5020061;28;3468;-62
2024/03/29 02:19:46;;;;;;;;;;;;;;;;;;5033690;28;5029;-63
2024/03/29 02:22:12;;;;;;;;;;;;;;;;;;5016636;28;4614;-62
2024/03/29 02:24:37;;;;;;;;;;;;;;;;;;5016946;28;4570;-63
2024/03/29 02:27:02;;;;;;;;;;;;;;;;;;5020466;28;5031;-63
2024/03/29 02:29:29;;;;;;;;;;;;;;;;;;5024132;28;3476;-63
2024/03/29 02:31:54;;;;;;;;;;;;;;;;;;5018712;28;4973;-62
2024/03/29 02:34:20;;;;;;;;;;;;;;;;;;5015864;28;4759;-62
2024/03/29 02:36:45;;;;;;;;;;;;;;;;;;5017411;28;4802;-63
2024/03/29 02:39:11;;;;;;;;;;;;;;;;;;5018811;28;5057;-63
2024/03/29 02:41:36;;;;;;;;;;;;;;;;;;5017548;28;3380;-62
2024/03/29 02:44:01;;;;;;;;;;;;;;;;;;5018893;28;4422;-62
2024/03/29 02:46:27;;;;;;;;;;;;;;;;;;5019694;28;4967;-62
2024/03/29 02:48:52;;;;;;;;;;;;;;;;;;5023624;28;4529;-62
2024/03/29 02:51:17;;;;;;;;;;;;;;;;;;5020090;28;4762;-62
2024/03/29 02:53:43;;;;;;;;;;;;;;;;;;5020682;28;5066;-63
2024/03/29 02:56:08;;;;;;;;;;;;;;;;;;5022912;28;3514;-62
2024/03/29 02:58:34;;;;;;;;;;;;;;;;;;5022326;28;5013;-62
2024/03/29 03:01:06;;;;;;;;;;;;;;;;;;5022657;28;4538;-62
2024/03/29 03:03:32;;;;;;;;;;;;;;;;;;5016574;28;5115;-62
2024/03/29 03:05:57;;;;;;;;;;;;;;;;;;5020767;28;5254;-64
2024/03/29 03:11:06;;;;;;;;;;;;;;;;;;5010603;28;4611;-62
2024/03/29 03:13:32;;;;;;;;;;;;;;;;;;5022033;28;5023;-62
2024/03/29 03:15:57;;;;;;;;;;;;;;;;;;5014411;28;4531;-62
2024/03/29 03:18:22;;;;;;;;;;;;;;;;;;5015574;28;5009;-62
2024/03/29 03:20:54;;;;;;;;;;;;;;;;;;5021415;28;4720;-63
2024/03/29 03:23:20;;;;;;;;;;;;;;;;;;5017901;28;3613;-62
2024/03/29 03:25:46;;;;;;;;;;;;;;;;;;5018309;28;4469;-62
2024/03/29 03:28:12;;;;;;;;;;;;;;;;;;5023599;28;4920;-63
2024/03/29 03:30:40;;;;;;;;;;;;;;;;;;5019031;28;5136;-62
2024/03/29 03:33:05;;;;;;;;;;;;;;;;;;5018651;28;4545;-63
2024/03/29 03:35:31;;;;;;;;;;;;;;;;;;5024716;28;3396;-62
2024/03/29 03:37:56;;;;;;;;;;;;;;;;;;5024808;28;5015;-62
2024/03/29 03:40:22;;;;;;;;;;;;;;;;;;5021415;28;4989;-63
2024/03/29 03:42:47;;;;;;;;;;;;;;;;;;5030827;28;4626;-62
2024/03/29 03:45:13;;;;;;;;;;;;;;;;;;5020916;28;4932;-62
2024/03/29 03:47:38;;;;;;;;;;;;;;;;;;5026726;28;4682;-63
2024/03/29 03:50:04;;;;;;;;;;;;;;;;;;5034447;28;3701;-62
2024/03/29 03:52:29;;;;;;;;;;;;;;;;;;5025089;28;4656;-62
2024/03/29 03:54:54;;;;;;;;;;;;;;;;;;5018623;28;5468;-62
2024/03/29 03:57:20;;;;;;;;;;;;;;;;;;5026998;28;5183;-62
2024/03/29 03:59:45;;;;;;;;;;;;;;;;;;5021305;28;4576;-62
2024/03/29 04:02:11;;;;;;;;;;;;;;;;;;5029159;28;1613;-62
2024/03/29 04:04:36;;;;;;;;;;;;;;;;;;5019704;28;5096;-62
2024/03/29 04:07:01;;;;;;;;;;;;;;;;;;5038762;28;5050;-62
2024/03/29 04:09:27;;;;;;;;;;;;;;;;;;5037974;28;5239;-63
2024/03/29 04:11:52;;;;;;;;;;;;;;;;;;5026790;28;4966;-62
2024/03/29 04:14:18;;;;;;;;;;;;;;;;;;5021349;28;3355;-62
2024/03/29 04:16:43;;;;;;;;;;;;;;;;;;5022648;28;4885;-63
2024/03/29 04:19:08;;;;;;;;;;;;;;;;;;5026383;28;5038;-63
2024/03/29 04:21:34;;;;;;;;;;;;;;;;;;5027922;28;4633;-62
2024/03/29 04:23:59;;;;;;;;;;;;;;;;;;5029810;28;5132;-63
2024/03/29 04:26:24;;;;;;;;;;;;;;;;;;5031197;28;1211;-62
2024/03/29 04:28:50;;;;;;;;;;;;;;;;;;5025284;28;4919;-62
2024/03/29 04:31:15;;;;;;;;;;;;;;;;;;5023490;28;4519;-62
2024/03/29 04:33:40;;;;;;;;;;;;;;;;;;5020352;28;5081;-62
2024/03/29 04:36:06;;;;;;;;;;;;;;;;;;5025619;28;4657;-62
2024/03/29 04:38:31;;;;;;;;;;;;;;;;;;5030007;28;3347;-62
2024/03/29 04:40:57;;;;;;;;;;;;;;;;;;5015927;28;5920;-62
2024/03/29 04:43:23;;;;;;;;;;;;;;;;;;5020782;28;5012;-62
2024/03/29 04:45:48;;;;;;;;;;;;;;;;;;5026821;28;4570;-62
2024/03/29 04:48:13;;;;;;;;;;;;;;;;;;5023068;28;5220;-63
2024/03/29 04:50:39;;;;;;;;;;;;;;;;;;5027556;28;5033;-63
2024/03/29 04:53:04;;;;;;;;;;;;;;;;;;5038281;28;3181;-62
2024/03/29 04:55:30;;;;;;;;;;;;;;;;;;5035270;28;5113;-63
2024/03/29 04:57:55;;;;;;;;;;;;;;;;;;5022863;28;4595;-63
2024/03/29 05:00:20;;;;;;;;;;;;;;;;;;5026033;28;5113;-63
2024/03/29 05:02:46;;;;;;;;;;;;;;;;;;5017859;28;4518;-63
2024/03/29 05:05:11;;;;;;;;;;;;;;;;;;5022363;28;3447;-62
2024/03/29 05:07:36;;;;;;;;;;;;;;;;;;5022328;28;4839;-62
2024/03/29 05:10:06;;;;;;;;;;;;;;;;;;5029700;28;4508;-62
2024/03/29 05:12:32;;;;;;;;;;;;;;;;;;5017210;28;4542;-62
2024/03/29 05:14:57;;;;;;;;;;;;;;;;;;5018305;28;5138;-63
2024/03/29 05:17:25;;;;;;;;;;;;;;;;;;5029124;28;3395;-63
2024/03/29 05:19:50;;;;;;;;;;;;;;;;;;5021946;28;5095;-63
2024/03/29 05:22:16;;;;;;;;;;;;;;;;;;5019869;28;4561;-63
2024/03/29 05:24:41;;;;;;;;;;;;;;;;;;5023139;28;4982;-63
2024/03/29 05:27:06;;;;;;;;;;;;;;;;;;5026475;28;5152;-63
2024/03/29 05:29:32;;;;;;;;;;;;;;;;;;5023688;28;3253;-63
2024/03/29 05:31:57;;;;;;;;;;;;;;;;;;5012907;28;5199;-63
2024/03/29 05:34:23;;;;;;;;;;;;;;;;;;5018444;28;4627;-62
2024/03/29 05:36:48;;;;;;;;;;;;;;;;;;5024635;28;4730;-63
2024/03/29 05:39:15;;;;;;;;;;;;;;;;;;5020711;28;4573;-62
2024/03/29 05:41:40;;;;;;;;;;;;;;;;;;5018658;28;5266;-63
2024/03/29 05:44:06;;;;;;;;;;;;;;;;;;5021350;28;3379;-63
2024/03/29 05:46:31;;;;;;;;;;;;;;;;;;5021972;28;5092;-63
2024/03/29 05:48:56;;;;;;;;;;;;;;;;;;5028645;28;5190;-63
2024/03/29 05:51:22;;;;;;;;;;;;;;;;;;5017661;28;4686;-63
2024/03/29 05:53:47;;;;;;;;;;;;;;;;;;5023543;28;5373;-63
2024/03/29 05:56:12;;;;;;;;;;;;;;;;;;5018966;28;3571;-62
2024/03/29 05:58:38;;;;;;;;;;;;;;;;;;5019730;28;4481;-63
2024/03/29 06:01:03;;;;;;;;;;;;;;;;;;5024121;28;4505;-63
2024/03/29 06:03:29;;;;;;;;;;;;;;;;;;5027838;28;5041;-63
2024/03/29 06:05:54;;;;;;;;;;;;;;;;;;5026442;28;4633;-62
2024/03/29 06:08:21;;;;;;;;;;;;;;;;;;5029094;28;1247;-62
2024/03/29 06:10:46;;;;;;;;;;;;;;;;;;5022606;28;4545;-63
2024/03/29 06:13:27;;;;;;;;;;;;;;;;;;5041398;28;5051;-62
2024/03/29 06:18:37;;;;;;;;;;;;;;;;;;5021752;28;5088;-62
2024/03/29 06:21:02;;;;;;;;;;;;;;;;;;5024171;28;5116;-62
2024/03/29 06:23:27;;;;;;;;;;;;;;;;;;5019892;28;3229;-62
2024/03/29 06:25:53;;;;;;;;;;;;;;;;;;5016778;28;5556;-62
2024/03/29 06:28:18;;;;;;;;;;;;;;;;;;5021552;28;5087;-62
2024/03/29 06:30:43;;;;;;;;;;;;;;;;;;5020138;28;5047;-62
2024/03/29 06:33:09;;;;;;;;;;;;;;;;;;5021672;28;5108;-62
2024/03/29 06:35:35;;;;;;;;;;;;;;;;;;5026039;28;3313;-62
2024/03/29 06:38:00;;;;;;;;;;;;;;;;;;5007680;28;4726;-62
2024/03/29 06:40:25;;;;;;;;;;;;;;;;;;5014239;28;5112;-62
2024/03/29 06:42:51;;;;;;;;;;;;;;;;;;5020541;28;5301;-62
2024/03/29 06:45:16;;;;;;;;;;;;;;;;;;5019246;28;4714;-62
2024/03/29 06:47:41;;;;;;;;;;;;;;;;;;5015727;28;5138;-63
2024/03/29 06:50:07;;;;;;;;;;;;;;;;;;5018348;28;3419;-62
2024/03/29 06:52:32;;;;;;;;;;;;;;;;;;5019318;28;5180;-62
2024/03/29 06:54:58;;;;;;;;;;;;;;;;;;5013339;28;4849;-61
2024/03/29 06:57:25;;;;;;;;;;;;;;;;;;5018249;28;5102;-59
2024/03/29 06:59:51;;;;;;;;;;;;;;;;;;5015490;28;5058;-58
2024/03/29 07:02:16;;;;;;;;;;;;;;;;;;5020237;28;3336;-59
2024/03/29 07:04:42;;;;;;;;;;;;;;;;;;5027489;28;5154;-60
2024/03/29 07:07:07;;;;;;;;;;;;;;;;;;5015875;28;5252;-60
2024/03/29 07:09:32;;;;;;;;;;;;;;;;;;5010698;28;5026;-67
2024/03/29 07:11:58;;;;;;;;;;;;;;;;;;5014946;28;5074;-60
2024/03/29 07:14:26;;;;;;;;;;;;;;;;;;5013026;28;3689;-62
2024/03/29 07:16:51;;;;;;;;;;;;;;;;;;5020864;28;4485;-62
2024/03/29 07:19:17;;;;;;;;;;;;;;;;;;5023307;28;4557;-60
2024/03/29 07:21:43;;;;;;;;;;;;;;;;;;5023336;28;4557;-59
2024/03/29 07:24:08;;;;;;;;;;;;;;;;;;5024580;28;4454;-62
2024/03/29 07:26:34;;;;;;;;;;;;;;;;;;5027351;28;3340;-60
2024/03/29 07:28:59;;;;;;;;;;;;;;;;;;5026129;28;5001;-59
2024/03/29 07:31:25;;;;;;;;;;;;;;;;;;5008953;28;5507;-63
2024/03/29 07:33:50;;;;;;;;;;;;;;;;;;5003876;28;5068;-60
2024/03/29 07:36:16;;;;;;;;;;;;;;;;;;5002286;28;4798;-59
2024/03/29 07:38:42;;;;;;;;;;;;;;;;;;5005051;28;5080;-58
2024/03/29 07:41:09;;;;;;;;;;;;;;;;;;5003101;28;3475;-61
2024/03/29 07:43:41;;;;;;;;;;;;;;;;;;5004095;28;4731;-65
2024/03/29 07:46:08;;;;;;;;;;;;;;;;;;5006160;28;5192;-65
2024/03/29 07:48:34;;;;;;;;;;;;;;;;;;5002216;28;5131;-65
2024/03/29 07:50:59;;;;;;;;;;;;;;;;;;5006444;28;4957;-64
2024/03/29 07:53:24;;;;;;;;;;;;;;;;;;5015731;28;3931;-64
2024/03/29 07:55:50;;;;;;;;;;;;;;;;;;5017243;28;5345;-64
2024/03/29 07:58:16;;;;;;;;;;;;;;;;;;5008428;28;5071;-65
2024/03/29 08:00:42;;;;;;;;;;;;;;;;;;5016243;28;4820;-65
2024/03/29 08:03:07;;;;;;;;;;;;;;;;;;5026864;28;4922;-68
2024/03/29 08:05:33;;;;;;;;;;;;;;;;;;5017083;28;3548;-64
2024/03/29 08:07:59;;;;;;;;;;;;;;;;;;5013727;28;4660;-70
2024/03/29 08:10:24;;;;;;;;;;;;;;;;;;5018416;28;4510;-65
2024/03/29 08:12:49;;;;;;;;;;;;;;;;;;5007786;28;5116;-65
2024/03/29 08:15:15;;;;;;;;;;;;;;;;;;5008260;28;4520;-65
2024/03/29 08:17:40;;;;;;;;;;;;;;;;;;5018624;28;5128;-64
2024/03/29 08:20:06;;;;;;;;;;;;;;;;;;5026414;28;3321;-67
2024/03/29 08:22:34;;;;;;;;;;;;;;;;;;5021138;28;4564;-70
2024/03/29 08:25:00;;;;;;;;;;;;;;;;;;5021664;28;4605;-68
2024/03/29 08:27:26;;;;;;;;;;;;;;;;;;5029347;28;5155;-65
2024/03/29 08:29:51;;;;;;;;;;;;;;;;;;5025216;28;4871;-69
2024/03/29 08:32:17;;;;;;;;;;;;;;;;;;5029385;28;3359;-67
2024/03/29 08:34:42;;;;;;;;;;;;;;;;;;5024127;28;5031;-63
2024/03/29 08:37:07;;;;;;;;;;;;;;;;;;5019606;28;5128;-64
2024/03/29 08:39:34;;;;;;;;;;;;;;;;;;5018974;28;4708;-64
2024/03/29 08:41:59;;;;;;;;;;;;;;;;;;5009772;28;4711;-65
2024/03/29 08:44:25;;;;;;;;;;;;;;;;;;5018298;28;3890;-63
2024/03/29 08:46:50;;;;;;;;;;;;;;;;;;5020823;28;5278;-62
2024/03/29 08:49:16;;;;;;;;;;;;;;;;;;5027816;28;5040;-62
2024/03/29 08:51:41;;;;;;;;;;;;;;;;;;5019909;28;5052;-63
2024/03/29 08:54:06;;;;;;;;;;;;;;;;;;5018919;28;5057;-63
2024/03/29 08:56:32;;;;;;;;;;;;;;;;;;5030795;28;1023;-63
2024/03/29 08:59:00;;;;;;;;;;;;;;;;;;5025793;28;5076;-63
2024/03/29 09:01:27;;;;;;;;;;;;;;;;;;5021148;28;5281;-62
2024/03/29 09:03:53;;;;;;;;;;;;;;;;;;5020715;28;4620;-64
2024/03/29 09:06:18;;;;;;;;;;;;;;;;;;5025969;28;5299;-66
2024/03/29 09:08:43;;;;;;;;;;;;;;;;;;5018928;28;5146;-65
2024/03/29 09:11:11;;;;;;;;;;;;;;;;;;5020516;28;3515;-64
2024/03/29 09:13:36;;;;;;;;;;;;;;;;;;5024550;28;4509;-63
2024/03/29 09:16:01;;;;;;;;;;;;;;;;;;5015834;28;5388;-63
2024/03/29 09:18:27;;;;;;;;;;;;;;;;;;5018654;28;5093;-65
2024/03/29 09:20:56;;;;;;;;;;;;;;;;;;5018281;28;4680;-64
2024/03/29 09:23:23;;;;;;;;;;;;;;;;;;5022617;28;3551;-64
2024/03/29 09:25:48;;;;;;;;;;;;;;;;;;5020342;28;5140;-63
2024/03/29 09:28:13;;;;;;;;;;;;;;;;;;5024607;28;4503;-64
2024/03/29 09:30:39;;;;;;;;;;;;;;;;;;5025290;28;5166;-63
2024/03/29 09:33:07;;;;;;;;;;;;;;;;;;5027631;28;5128;-66
2024/03/29 09:35:32;;;;;;;;;;;;;;;;;;5024129;28;3608;-62
2024/03/29 09:37:59;;;;;;;;;;;;;;;;;;5029776;28;4940;-66
2024/03/29 09:40:24;;;;;;;;;;;;;;;;;;5022796;28;5165;-67
2024/03/29 09:42:50;;;;;;;;;;;;;;;;;;5020339;28;4543;-69
2024/03/29 09:45:15;;;;;;;;;;;;;;;;;;5025688;28;4539;-68
2024/03/29 09:47:41;;;;;;;;;;;;;;;;;;5029413;28;5121;-73
2024/03/29 09:50:06;;;;;;;;;;;;;;;;;;5021012;28;3513;-70
2024/03/29 09:52:32;;;;;;;;;;;;;;;;;;5036208;28;4681;-70
2024/03/29 09:54:58;;;;;;;;;;;;;;;;;;5025189;28;4551;-69
2024/03/29 09:57:24;;;;;;;;;;;;;;;;;;5036974;28;5098;-71
2024/03/29 09:59:49;;;;;;;;;;;;;;;;;;5024651;28;4561;-65
2024/03/29 10:02:16;;;;;;;;;;;;;;;;;;5025615;28;3663;-68
2024/03/29 10:04:42;;;;;;;;;;;;;;;;;;5019016;28;5074;-69
2024/03/29 10:07:07;;;;;;;;;;;;;;;;;;5015512;28;4685;-67
2024/03/29 10:09:33;;;;;;;;;;;;;;;;;;5012975;28;5110;-69
2024/03/29 10:11:59;;;;;;;;;;;;;;;;;;4989383;28;5227;-68
2024/03/29 10:14:25;;;;;;;;;;;;;;;;;;5025123;28;3577;-68
2024/03/29 10:16:51;;;;;;;;;;;;;;;;;;5018545;28;5090;-66
2024/03/29 10:19:16;;;;;;;;;;;;;;;;;;5017508;28;5099;-69
2024/03/29 10:21:42;;;;;;;;;;;;;;;;;;5023490;28;4659;-69
2024/03/29 10:24:11;;;;;;;;;;;;;;;;;;5024558;28;5206;-74
2024/03/29 10:26:40;;;;;;;;;;;;;;;;;;5026832;28;3436;-66
2024/03/29 10:29:05;;;;;;;;;;;;;;;;;;5022654;28;4752;-67
2024/03/29 10:31:35;;;;;;;;;;;;;;;;;;5025720;28;4543;-70
2024/03/29 10:34:02;;;;;;;;;;;;;;;;;;5023390;28;4650;-68
2024/03/29 10:36:27;;;;;;;;;;;;;;;;;;5026281;28;6325;-67
2024/03/29 10:38:53;;;;;;;;;;;;;;;;;;5034477;28;4559;-66
2024/03/29 10:41:18;;;;;;;;;;;;;;;;;;5027088;28;1247;-64
2024/03/29 10:43:45;;;;;;;;;;;;;;;;;;5020237;28;5416;-64
2024/03/29 10:46:11;;;;;;;;;;;;;;;;;;5023720;28;5260;-66
2024/03/29 10:48:36;;;;;;;;;;;;;;;;;;5023037;28;4549;-68
2024/03/29 10:51:02;;;;;;;;;;;;;;;;;;5023168;28;5804;-70
2024/03/29 10:53:27;;;;;;;;;;;;;;;;;;5039534;28;1100;-74
2024/03/29 10:56:02;;;;;;;;;;;;;;;;;;5036630;28;4807;-75
2024/03/29 10:58:31;;;;;;;;;;;;;;;;;;5024726;28;5056;-73
2024/03/29 11:00:59;;;;;;;;;;;;;;;;;;5020893;28;5212;-65
2024/03/29 11:03:43;;;;;;;;;;;;;;;;;;5018818;28;5573;-64
2024/03/29 11:06:08;;;;;;;;;;;;;;;;;;5025572;28;4554;-65
2024/03/29 11:08:37;;;;;;;;;;;;;;;;;;5036186;28;3338;-67
2024/03/29 11:11:04;;;;;;;;;;;;;;;;;;5027252;28;4601;-65
2024/03/29 11:13:32;;;;;;;;;;;;;;;;;;5019289;28;4657;-65
2024/03/29 11:15:59;;;;;;;;;;;;;;;;;;5025240;28;5006;-67
2024/03/29 11:18:26;;;;;;;;;;;;;;;;;;5037186;28;4563;-69
2024/03/29 11:20:52;;;;;;;;;;;;;;;;;;5023353;28;5060;-66
2024/03/29 11:23:18;;;;;;;;;;;;;;;;;;5018516;28;3321;-63
2024/03/29 11:25:48;;;;;;;;;;;;;;;;;;5009712;28;4760;-64
2024/03/29 11:28:15;;;;;;;;;;;;;;;;;;5015914;28;5347;-72
2024/03/29 11:30:47;;;;;;;;;;;;;;;;;;5023424;28;4700;-78
2024/03/29 11:33:28;;;;;;;;;;;;;;;;;;5019230;28;5084;-75
2024/03/29 11:35:54;;;;;;;;;;;;;;;;;;5014731;28;5053;-75
2024/03/29 11:38:19;;;;;;;;;;;;;;;;;;5023075;28;3492;-70
2024/03/29 11:41:14;;;;;;;;;;;;;;;;;;5011638;28;5086;-69
2024/03/29 11:43:39;;;;;;;;;;;;;;;;;;5020900;28;4938;-69
2024/03/29 11:46:09;;;;;;;;;;;;;;;;;;5022217;28;4551;-68
2024/03/29 11:48:35;;;;;;;;;;;;;;;;;;5019299;28;5080;-70
2024/03/29 11:51:01;;;;;;;;;;;;;;;;;;5018373;28;5225;-76
2024/03/29 11:53:29;;;;;;;;;;;;;;;;;;5022598;28;3473;-75
2024/03/29 11:55:56;;;;;;;;;;;;;;;;;;5025545;28;5353;-67
2024/03/29 11:58:22;;;;;;;;;;;;;;;;;;5024798;28;4707;-69
2024/03/29 12:00:48;;;;;;;;;;;;;;;;;;5021392;28;4596;-68
2024/03/29 12:03:14;;;;;;;;;;;;;;;;;;5029255;28;5157;-79
2024/03/29 12:05:39;;;;;;;;;;;;;;;;;;5027647;28;5098;-73
2024/03/29 12:08:05;;;;;;;;;;;;;;;;;;5030087;28;3410;-72
2024/03/29 12:10:31;;;;;;;;;;;;;;;;;;5007326;28;5217;-75
2024/03/29 12:12:56;;;;;;;;;;;;;;;;;;5023701;28;5109;-73
2024/03/29 12:15:23;;;;;;;;;;;;;;;;;;5022472;28;4525;-71
2024/03/29 12:17:55;;;;;;;;;;;;;;;;;;5022544;28;5049;-72
2024/03/29 12:20:21;;;;;;;;;;;;;;;;;;5035233;28;3440;-72
2024/03/29 12:22:46;;;;;;;;;;;;;;;;;;5027072;28;4998;-73
2024/03/29 12:25:11;;;;;;;;;;;;;;;;;;5026351;28;5018;-73
2024/03/29 12:27:37;;;;;;;;;;;;;;;;;;5015835;28;5116;-71
2024/03/29 12:30:02;;;;;;;;;;;;;;;;;;5022261;28;4829;-68
2024/03/29 12:32:29;;;;;;;;;;;;;;;;;;5019883;28;3502;-65
2024/03/29 12:34:55;;;;;;;;;;;;;;;;;;5021521;28;5076;-82
2024/03/29 12:37:21;;;;;;;;;;;;;;;;;;5020360;28;4531;-69
2024/03/29 12:39:49;;;;;;;;;;;;;;;;;;5025011;28;5177;-68
2024/03/29 12:42:15;;;;;;;;;;;;;;;;;;5026406;28;4514;-65
2024/03/29 12:44:40;;;;;;;;;;;;;;;;;;5023238;28;4930;-67
2024/03/29 12:47:05;;;;;;;;;;;;;;;;;;5016186;28;3809;-68
2024/03/29 12:49:31;;;;;;;;;;;;;;;;;;5015045;28;5504;-65
2024/03/29 12:51:56;;;;;;;;;;;;;;;;;;5026672;28;5049;-65
2024/03/29 12:54:23;;;;;;;;;;;;;;;;;;5019590;28;5071;-63
2024/03/29 12:56:48;;;;;;;;;;;;;;;;;;5031000;28;5095;-64
2024/03/29 12:59:14;;;;;;;;;;;;;;;;;;5020510;28;3466;-63
2024/03/29 13:01:40;;;;;;;;;;;;;;;;;;5026056;28;4958;-63
2024/03/29 13:04:05;;;;;;;;;;;;;;;;;;5030238;28;5105;-62
2024/03/29 13:06:31;;;;;;;;;;;;;;;;;;5025715;28;5192;-65
2024/03/29 13:08:56;;;;;;;;;;;;;;;;;;5022193;28;4988;-63
2024/03/29 13:11:22;;;;;;;;;;;;;;;;;;5022249;28;3532;-64
2024/03/29 13:13:47;;;;;;;;;;;;;;;;;;5029984;28;4951;-62
2024/03/29 13:16:13;;;;;;;;;;;;;;;;;;5027769;28;5129;-63
2024/03/29 13:18:39;;;;;;;;;;;;;;;;;;5034522;28;5035;-65
2024/03/29 13:21:04;;;;;;;;;;;;;;;;;;5021953;28;5002;-64
2024/03/29 13:23:32;;;;;;;;;;;;;;;;;;5026555;28;3343;-62
2024/03/29 13:25:57;;;;;;;;;;;;;;;;;;5021300;28;4509;-63
2024/03/29 13:28:24;;;;;;;;;;;;;;;;;;5028890;28;5341;-64
2024/03/29 13:30:51;;;;;;;;;;;;;;;;;;5029135;28;5467;-65
2024/03/29 13:33:17;;;;;;;;;;;;;;;;;;5038679;28;5092;-63
2024/03/29 13:35:44;;;;;;;;;;;;;;;;;;5029491;28;5314;-63
2024/03/29 13:38:09;;;;;;;;;;;;;;;;;;5024734;28;3490;-66
2024/03/29 13:40:34;;;;;;;;;;;;;;;;;;5024017;28;4693;-68
2024/03/29 13:43:00;;;;;;;;;;;;;;;;;;5026053;28;5048;-66
2024/03/29 13:45:27;;;;;;;;;;;;;;;;;;5028109;28;5059;-67
2024/03/29 13:47:52;;;;;;;;;;;;;;;;;;5020765;28;5469;-68
2024/03/29 13:50:18;;;;;;;;;;;;;;;;;;5025747;28;3990;-68
2024/03/29 13:52:43;;;;;;;;;;;;;;;;;;5024565;28;5160;-67
2024/03/29 13:55:09;;;;;;;;;;;;;;;;;;5024595;28;5064;-67
2024/03/29 13:57:34;;;;;;;;;;;;;;;;;;5017877;28;5111;-67
2024/03/29 14:00:00;;;;;;;;;;;;;;;;;;5019577;28;4642;-69
2024/03/29 14:02:27;;;;;;;;;;;;;;;;;;5026286;28;1462;-67
2024/03/29 14:04:52;;;;;;;;;;;;;;;;;;5025042;28;5099;-68
2024/03/29 14:07:18;;;;;;;;;;;;;;;;;;5021974;28;6068;-67
2024/03/29 14:09:43;;;;;;;;;;;;;;;;;;5020972;28;5141;-70
2024/03/29 14:12:09;;;;;;;;;;;;;;;;;;5017455;28;4777;-64
2024/03/29 14:14:34;;;;;;;;;;;;;;;;;;5019103;28;1126;-67
2024/03/29 14:17:04;;;;;;;;;;;;;;;;;;5023230;28;4556;-67
2024/03/29 14:19:30;;;;;;;;;;;;;;;;;;5025124;28;5200;-65
2024/03/29 14:21:55;;;;;;;;;;;;;;;;;;5023582;28;4710;-66
2024/03/29 14:24:23;;;;;;;;;;;;;;;;;;5028132;28;5039;-65
2024/03/29 14:26:49;;;;;;;;;;;;;;;;;;5018937;28;5107;-65
2024/03/29 14:29:15;;;;;;;;;;;;;;;;;;5026507;28;1094;-69
2024/03/29 14:31:40;;;;;;;;;;;;;;;;;;5028499;28;5036;-65
2024/03/29 14:34:06;;;;;;;;;;;;;;;;;;5024416;28;4604;-67
2024/03/29 14:36:33;;;;;;;;;;;;;;;;;;5025223;28;5023;-69
2024/03/29 14:39:00;;;;;;;;;;;;;;;;;;5024971;28;5343;-65
2024/03/29 14:41:26;;;;;;;;;;;;;;;;;;5021281;28;3237;-64
2024/03/29 14:43:52;;;;;;;;;;;;;;;;;;5025488;28;5215;-65
2024/03/29 14:46:18;;;;;;;;;;;;;;;;;;5025608;28;5016;-66
2024/03/29 14:48:43;;;;;;;;;;;;;;;;;;5027954;28;5032;-71
2024/03/29 14:51:09;;;;;;;;;;;;;;;;;;5027523;28;5484;-71
2024/03/29 14:53:34;;;;;;;;;;;;;;;;;;5024179;28;3434;-71
2024/03/29 14:56:02;;;;;;;;;;;;;;;;;;5019228;28;4601;-70
2024/03/29 14:58:27;;;;;;;;;;;;;;;;;;5028146;28;4683;-67
2024/03/29 15:00:53;;;;;;;;;;;;;;;;;;5024564;28;4749;-67
2024/03/29 15:03:18;;;;;;;;;;;;;;;;;;5017197;28;4730;-66
2024/03/29 15:05:44;;;;;;;;;;;;;;;;;;5021773;28;5129;-71
2024/03/29 15:08:16;;;;;;;;;;;;;;;;;;5024553;28;3764;-76
2024/03/29 15:10:42;;;;;;;;;;;;;;;;;;5024237;28;5060;-72
2024/03/29 15:13:07;;;;;;;;;;;;;;;;;;5016868;28;5544;-77
2024/03/29 15:15:36;;;;;;;;;;;;;;;;;;5013877;28;5134;-70
2024/03/29 15:18:02;;;;;;;;;;;;;;;;;;5021968;28;5363;-65
2024/03/29 15:20:27;;;;;;;;;;;;;;;;;;5023916;28;3491;-70
2024/03/29 15:22:53;;;;;;;;;;;;;;;;;;5021672;28;4945;-71
2024/03/29 15:25:19;;;;;;;;;;;;;;;;;;5022099;28;4753;-68
2024/03/29 15:30:28;;;;;;;;;;;;;;;;;;5019293;28;4714;-70
2024/03/29 15:32:53;;;;;;;;;;;;;;;;;;5021402;28;4538;-69
2024/03/29 15:35:18;;;;;;;;;;;;;;;;;;5016151;28;3644;-70
2024/03/29 15:37:44;;;;;;;;;;;;;;;;;;5028402;28;5052;-69
2024/03/29 15:40:10;;;;;;;;;;;;;;;;;;5023408;28;5233;-70
2024/03/29 15:42:37;;;;;;;;;;;;;;;;;;5027983;28;5099;-69
2024/03/29 15:45:03;;;;;;;;;;;;;;;;;;5019163;28;4656;-70
2024/03/29 15:47:28;;;;;;;;;;;;;;;;;;5021969;28;3727;-70
2024/03/29 15:49:56;;;;;;;;;;;;;;;;;;5020221;28;4999;-70
2024/03/29 15:52:21;;;;;;;;;;;;;;;;;;5017310;28;4544;-70
2024/03/29 15:54:47;;;;;;;;;;;;;;;;;;5027347;28;4912;-68
2024/03/29 15:57:12;;;;;;;;;;;;;;;;;;5019125;28;4709;-69
2024/03/29 15:59:40;;;;;;;;;;;;;;;;;;5024544;28;4558;-67
2024/03/29 16:02:05;;;;;;;;;;;;;;;;;;5029274;28;3112;-69
2024/03/29 16:04:30;;;;;;;;;;;;;;;;;;5023588;28;4568;-72
2024/03/29 16:06:56;;;;;;;;;;;;;;;;;;5019268;28;4867;-68
2024/03/29 16:09:21;;;;;;;;;;;;;;;;;;5021288;28;5036;-67
2024/03/29 16:11:47;;;;;;;;;;;;;;;;;;5019174;28;5141;-69
2024/03/29 16:14:12;;;;;;;;;;;;;;;;;;5024307;28;3440;-65
2024/03/29 16:16:37;;;;;;;;;;;;;;;;;;5022641;28;4692;-66
2024/03/29 16:19:03;;;;;;;;;;;;;;;;;;5026535;28;5080;-65
2024/03/29 16:21:30;;;;;;;;;;;;;;;;;;5021922;28;5229;-66
2024/03/29 16:23:55;;;;;;;;;;;;;;;;;;5021795;28;4549;-69
2024/03/29 16:26:21;;;;;;;;;;;;;;;;;;5021869;28;3419;-73
2024/03/29 16:28:47;;;;;;;;;;;;;;;;;;5017518;28;5031;-68
2024/03/29 16:31:13;;;;;;;;;;;;;;;;;;5022548;28;4678;-67
2024/03/29 16:33:38;;;;;;;;;;;;;;;;;;5039134;28;5057;-68
2024/03/29 16:36:07;;;;;;;;;;;;;;;;;;5019546;28;4500;-65
2024/03/29 16:38:33;;;;;;;;;;;;;;;;;;5019403;28;3372;-69
2024/03/29 16:40:58;;;;;;;;;;;;;;;;;;5023019;28;4986;-68
2024/03/29 16:43:23;;;;;;;;;;;;;;;;;;5021634;28;4678;-66
2024/03/29 16:45:49;;;;;;;;;;;;;;;;;;5025978;28;4686;-69
2024/03/29 16:48:14;;;;;;;;;;;;;;;;;;5023809;28;5023;-67
2024/03/29 16:50:40;;;;;;;;;;;;;;;;;;5025403;28;5475;-65
2024/03/29 16:53:05;;;;;;;;;;;;;;;;;;5022851;28;3684;-66
2024/03/29 16:55:32;;;;;;;;;;;;;;;;;;5023597;28;5232;-76
2024/03/29 16:57:57;;;;;;;;;;;;;;;;;;5012392;28;4553;-68
2024/03/29 17:00:24;;;;;;;;;;;;;;;;;;5009903;28;5211;-77
2024/03/29 17:02:50;;;;;;;;;;;;;;;;;;5025430;28;4695;-67